Time;durP1;ratioP1;P1;durP2;ratioP2;P2;SDS_P1;SDS_P2;PMS_P1;PMS_P2;Temp;Humidity;BMP_temperature;BMP_pressure;BME280_temperature;BME280_humidity;BME280_pressure;Samples;Min_cycle;Max_cycle;Signal;HPM_P1;HPM_P2
2021/12/15 00:03:17;;;;;;;19.13;13.17;;;;;;;19.45;56.11;97842.00;10370087;28;20038;-22
2021/12/15 00:08:17;;;;;;;18.48;13.80;;;;;;;19.41;56.50;97840.28;10367371;28;20280;-22
2021/12/15 00:13:20;;;;;;;19.13;13.27;;;;;;;19.41;56.59;97835.19;10364828;28;20038;-22
2021/12/15 00:18:20;;;;;;;18.20;13.07;;;;;;;19.41;56.50;97830.13;10366390;28;20037;-22
2021/12/15 00:23:21;;;;;;;16.37;11.73;;;;;;;19.43;56.52;97831.00;10368219;28;20030;-22
2021/12/15 00:28:21;;;;;;;19.70;12.70;;;;;;;19.42;56.45;97829.28;10362029;28;20490;-22
2021/12/15 00:33:22;;;;;;;19.23;13.33;;;;;;;19.38;56.10;97835.13;10366088;28;20034;-23
2021/12/15 00:38:23;;;;;;;20.25;12.65;;;;;;;19.34;56.48;97825.78;10360645;28;20265;-23
2021/12/15 00:43:24;;;;;;;16.95;12.40;;;;;;;19.40;56.49;97841.09;10365293;28;20026;-22
2021/12/15 00:48:24;;;;;;;20.27;12.32;;;;;;;19.43;56.29;97841.16;10369413;28;20026;-22
2021/12/15 00:53:25;;;;;;;17.63;11.73;;;;;;;19.43;56.13;97841.97;10360948;28;20026;-22
2021/12/15 00:58:26;;;;;;;17.67;11.93;;;;;;;19.41;56.27;97837.75;10361919;28;20172;-22
2021/12/15 01:03:29;;;;;;;16.95;11.82;;;;;;;19.41;56.27;97842.81;10364611;28;20585;-23
2021/12/15 01:08:32;;;;;;;17.75;10.98;;;;;;;19.37;56.30;97841.91;10365608;28;20061;-23
2021/12/15 01:24:16;;;;;;;16.13;11.15;;;;;;;19.33;56.22;97839.31;10365423;28;20034;-22
2021/12/15 01:29:17;;;;;;;15.00;10.75;;;;;;;19.39;56.29;97849.53;10360365;28;20402;-22
2021/12/15 01:34:18;;;;;;;14.70;10.52;;;;;;;19.39;56.11;97859.69;10362627;28;20033;-22
2021/12/15 01:39:18;;;;;;;16.23;10.63;;;;;;;19.44;56.17;97865.72;10364698;28;20048;-22
2021/12/15 01:49:21;;;;;;;14.70;10.83;;;;;;;19.35;56.07;97855.41;10362327;28;20433;-22
2021/12/15 01:54:24;;;;;;;13.80;10.30;;;;;;;19.41;56.06;97873.28;10356335;28;20033;-22
2021/12/15 01:59:26;;;;;;;15.20;10.57;;;;;;;19.40;56.05;97872.44;10372626;28;20025;-22
2021/12/15 02:04:26;;;;;;;17.23;10.75;;;;;;;19.38;56.16;97869.03;10370827;28;20025;-22
2021/12/15 02:10:12;;;;;;;14.20;9.43;;;;;;;19.40;56.04;97861.41;10370556;28;20493;-22
2021/12/15 02:14:48;;;;;;;11.48;8.98;;;;;;;19.37;55.92;97862.25;10352939;28;20042;-22
2021/12/15 02:19:49;;;;;;;11.95;9.15;;;;;;;19.41;56.09;97868.22;10369843;28;20113;-22
2021/12/15 02:24:52;;;;;;;14.68;9.07;;;;;;;19.41;56.10;97873.28;10370525;28;20032;-22
2021/12/15 02:29:58;;;;;;;13.88;9.40;;;;;;;19.43;55.92;97884.31;10369325;28;20033;-22
2021/12/15 02:40:12;;;;;;;14.45;9.98;;;;;;;19.40;56.00;97881.72;10369349;28;20075;-22
2021/12/15 02:45:18;;;;;;;13.63;9.13;;;;;;;19.38;55.96;97883.38;10370156;28;20033;-22
2021/12/15 02:50:23;;;;;;;14.57;9.30;;;;;;;19.36;56.15;97885.06;10370035;28;20037;-23
2021/12/15 02:55:23;;;;;;;12.50;8.55;;;;;;;19.35;55.99;97881.66;10365305;28;20041;-22
2021/12/15 03:00:36;;;;;;;12.43;8.43;;;;;;;19.35;56.11;97875.72;10370718;28;20062;-22
2021/12/15 03:05:48;;;;;;;16.40;9.65;;;;;;;19.36;55.95;97885.06;10370341;28;20029;-22
2021/12/15 03:16:12;;;;;;;11.32;8.60;;;;;;;19.34;55.97;97874.03;10366405;28;20041;-22
2021/12/15 03:21:21;;;;;;;11.02;7.70;;;;;;;19.36;55.98;97879.97;10369018;28;20053;-22
2021/12/15 03:26:38;;;;;;;11.05;8.82;;;;;;;19.38;55.66;97875.78;10369031;28;20414;-22
2021/12/15 03:42:03;;;;;;;8.85;7.35;;;;;;;19.33;55.83;97874.88;10367574;28;20406;-22
2021/12/15 03:47:08;;;;;;;10.38;7.78;;;;;;;19.32;55.88;97888.38;10373431;28;20124;-22
2021/12/15 03:52:11;;;;;;;8.80;7.88;;;;;;;19.34;56.09;97884.19;10361538;28;20459;-22
2021/12/15 03:57:12;;;;;;;12.23;7.63;;;;;;;19.31;56.07;97882.44;10366551;28;20037;-23
2021/12/15 04:02:16;;;;;;;10.70;8.02;;;;;;;19.32;56.06;97883.28;10372056;28;20037;-22
2021/12/15 04:07:19;;;;;;;10.60;7.70;;;;;;;19.36;55.71;97890.13;10367831;28;20087;-22
2021/12/15 04:12:20;;;;;;;10.85;7.80;;;;;;;19.37;55.68;97886.75;10365296;28;20659;-23
2021/12/15 04:17:30;;;;;;;9.65;6.80;;;;;;;19.35;55.71;97890.97;10367823;28;20048;-22
2021/12/15 04:22:30;;;;;;;9.82;7.05;;;;;;;19.32;55.98;97888.38;10363178;28;20045;-22
2021/12/15 04:27:31;;;;;;;8.23;6.43;;;;;;;19.25;55.94;97884.88;10366415;28;20034;-22
2021/12/15 04:32:36;;;;;;;9.63;7.13;;;;;;;19.31;55.75;97891.75;10367065;28;20563;-22
2021/12/15 04:37:37;;;;;;;11.00;7.20;;;;;;;19.33;55.95;97895.19;10363479;28;20289;-22
2021/12/15 04:42:39;;;;;;;9.07;6.88;;;;;;;19.37;55.80;97894.38;10362502;28;20537;-23
2021/12/15 04:47:39;;;;;;;10.77;7.50;;;;;;;19.38;55.70;97888.47;10362569;28;20044;-23
2021/12/15 04:52:40;;;;;;;9.07;6.85;;;;;;;19.35;55.71;97903.66;10359769;28;20518;-22
2021/12/15 04:57:40;;;;;;;9.20;7.28;;;;;;;19.38;55.62;97893.53;10364036;28;20378;-22
2021/12/15 05:02:41;;;;;;;10.50;6.55;;;;;;;19.40;55.54;97896.97;10372259;28;20034;-23
2021/12/15 05:07:41;;;;;;;8.90;6.65;;;;;;;19.39;55.44;97905.41;10364847;28;20501;-22
2021/12/15 05:12:41;;;;;;;10.68;7.00;;;;;;;19.40;55.41;97900.38;10362378;28;20033;-22
2021/12/15 05:17:42;;;;;;;10.23;6.70;;;;;;;19.37;55.62;97907.94;10365707;28;20034;-22
2021/12/15 05:22:43;;;;;;;9.57;6.17;;;;;;;19.39;55.58;97907.94;10369653;28;20072;-22
2021/12/15 05:27:44;;;;;;;13.00;5.82;;;;;;;19.40;55.44;97907.97;10365379;28;20340;-22
2021/12/15 05:32:47;;;;;;;8.05;6.00;;;;;;;19.42;54.64;97910.56;10364162;28;20109;-22
2021/12/15 05:37:50;;;;;;;8.98;6.03;;;;;;;19.46;53.92;97902.13;10363549;28;20046;-22
2021/12/15 05:42:51;;;;;;;6.95;4.40;;;;;;;19.42;52.54;97895.31;10363695;28;20026;-22
2021/12/15 05:47:51;;;;;;;16.63;7.00;;;;;;;19.41;50.97;97904.59;10368815;28;20033;-22
2021/12/15 05:52:52;;;;;;;9.15;4.53;;;;;;;19.42;50.13;97910.56;10355591;28;20408;-22
2021/12/15 05:57:53;;;;;;;7.65;5.07;;;;;;;19.38;49.85;97918.94;10363393;28;20088;-22
2021/12/15 06:02:54;;;;;;;10.40;4.80;;;;;;;19.35;52.86;97921.44;10368633;28;20033;-22
2021/12/15 06:07:55;;;;;;;12.98;5.72;;;;;;;19.41;54.68;97930.00;10362136;28;20037;-22
2021/12/15 06:12:56;;;;;;;11.60;5.87;;;;;;;19.39;55.13;97928.25;10363966;28;20038;-22
2021/12/15 06:18:01;;;;;;;8.95;5.40;;;;;;;19.40;54.88;97937.59;10356919;28;20368;-22
2021/12/15 06:23:08;;;;;;;7.68;5.45;;;;;;;19.33;55.00;97929.03;10362831;28;20088;-22
2021/12/15 06:28:09;;;;;;;12.82;5.35;;;;;;;19.35;54.50;97927.38;10361793;28;20683;-23
2021/12/15 06:33:11;;;;;;;15.30;5.22;;;;;;;19.14;50.46;97931.22;10364543;28;20037;-22
2021/12/15 06:38:11;;;;;;;22.60;5.88;;;;;;;19.26;53.94;97936.53;10362317;28;20533;-22
2021/12/15 06:43:14;;;;;;;7.53;4.50;;;;;;;19.36;54.52;97940.94;10366968;28;20030;-22
2021/12/15 06:58:53;;;;;;;9.52;4.93;;;;;;;19.37;54.57;97942.63;10367230;28;20109;-21
2021/12/15 07:03:53;;;;;;;7.30;4.30;;;;;;;19.40;54.66;97952.84;10371717;28;20392;-22
2021/12/15 07:08:54;;;;;;;9.32;4.75;;;;;;;19.41;54.64;97952.88;10370910;28;20284;-22
2021/12/15 07:13:54;;;;;;;6.50;4.30;;;;;;;19.38;54.64;97946.88;10367612;28;20032;-22
2021/12/15 07:19:15;;;;;;;7.57;4.30;;;;;;;19.39;54.29;97951.13;10370182;28;20041;-22
2021/12/15 07:24:15;;;;;;;4.63;3.70;;;;;;;19.41;54.50;97952.03;10371008;28;20028;-23
2021/12/15 07:29:16;;;;;;;7.43;4.60;;;;;;;19.43;54.26;97950.34;10369113;28;20029;-22
2021/12/15 07:34:16;;;;;;;5.68;3.80;;;;;;;19.43;54.11;97947.81;10369249;28;20109;-23
2021/12/15 07:39:17;;;;;;;6.20;4.27;;;;;;;19.38;54.21;97949.41;10369872;28;20045;-22
2021/12/15 07:44:20;;;;;;;5.47;4.10;;;;;;;19.37;54.15;97947.72;10367751;28;20768;-22
2021/12/15 07:49:23;;;;;;;6.07;3.70;;;;;;;19.32;54.10;97950.19;10372618;28;20030;-22
2021/12/15 07:54:23;;;;;;;6.47;4.03;;;;;;;19.31;54.13;97957.75;10362709;28;20505;-22
2021/12/15 07:59:24;;;;;;;5.13;4.20;;;;;;;19.32;54.06;97962.88;10370562;28;20032;-22
2021/12/15 08:04:24;;;;;;;5.20;3.90;;;;;;;19.29;54.05;97964.50;10368416;28;20030;-22
2021/12/15 08:09:25;;;;;;;5.33;3.70;;;;;;;19.33;53.92;97967.13;10368305;28;20277;-22
2021/12/15 08:14:25;;;;;;;4.10;3.53;;;;;;;19.36;54.04;97976.47;10368375;28;20568;-22
2021/12/15 08:19:26;;;;;;;4.43;3.22;;;;;;;19.35;54.04;97990.84;10367446;28;20100;-23
2021/12/15 08:24:26;;;;;;;5.13;3.63;;;;;;;19.36;53.67;97989.19;10366760;28;20030;-22
2021/12/15 08:29:27;;;;;;;9.43;3.35;;;;;;;19.35;53.84;97995.09;10365030;28;20036;-22
2021/12/15 08:34:27;;;;;;;4.43;3.97;;;;;;;19.33;53.99;97999.31;10366285;28;20155;-22
2021/12/15 08:39:28;;;;;;;4.22;3.00;;;;;;;19.39;53.97;97996.84;10366893;28;20112;-23
2021/12/15 08:44:28;;;;;;;4.38;3.22;;;;;;;19.41;54.40;98002.81;10363715;28;20056;-22
2021/12/15 08:49:28;;;;;;;4.20;3.50;;;;;;;19.44;54.23;98005.41;10370074;28;20033;-22
2021/12/15 08:54:29;;;;;;;7.30;4.07;;;;;;;19.44;54.34;98005.41;10360988;28;20034;-23
2021/12/15 08:59:29;;;;;;;4.63;3.55;;;;;;;19.43;54.32;98008.78;10368371;28;20095;-22
2021/12/15 09:04:30;;;;;;;4.80;3.00;;;;;;;19.38;54.59;98006.16;10366081;28;20033;-22
2021/12/15 09:09:30;;;;;;;4.75;2.85;;;;;;;19.41;54.60;98005.38;10365459;28;20120;-22
2021/12/15 09:14:31;;;;;;;6.28;3.28;;;;;;;19.41;54.68;98012.97;10364244;28;20038;-23
2021/12/15 09:19:31;;;;;;;4.60;2.97;;;;;;;19.33;55.06;98017.91;10364448;28;20085;-22
2021/12/15 09:24:32;;;;;;;5.60;3.22;;;;;;;19.32;55.26;98022.97;10365879;28;20498;-22
2021/12/15 09:29:33;;;;;;;4.68;2.90;;;;;;;19.33;55.19;98029.78;10364272;28;20034;-22
2021/12/15 09:34:33;;;;;;;6.32;2.90;;;;;;;19.36;55.11;98034.91;10365166;28;20398;-22
2021/12/15 09:39:35;;;;;;;14.07;5.63;;;;;;;19.40;54.94;98037.50;10365815;28;20559;-22
2021/12/15 09:44:36;;;;;;;11.90;3.50;;;;;;;19.42;55.09;98030.78;10365061;28;20033;-22
2021/12/15 10:21:17;;;;;;;8.18;2.90;;;;;;;19.43;53.62;98013.84;10371457;28;20152;-22
2021/12/15 10:26:20;;;;;;;5.63;2.83;;;;;;;19.39;53.69;98007.00;10372270;28;20045;-22
2021/12/15 10:31:24;;;;;;;4.80;3.20;;;;;;;19.39;53.78;98012.06;10369494;28;20084;-22
2021/12/15 10:36:29;;;;;;;9.73;2.78;;;;;;;19.38;53.92;98000.22;10367780;28;20121;-22
2021/12/15 10:41:34;;;;;;;9.05;3.03;;;;;;;19.41;53.87;98007.91;10371378;28;20521;-22
2021/12/15 10:46:50;;;;;;;6.45;3.30;;;;;;;19.44;53.79;98001.16;10371265;28;20026;-22
2021/12/15 10:51:55;;;;;;;6.53;3.67;;;;;;;19.40;53.59;97983.31;10365555;28;20038;-22
2021/12/15 10:57:05;;;;;;;6.05;2.85;;;;;;;19.47;53.68;97995.28;10369317;28;20061;-22
2021/12/15 11:02:11;;;;;;;5.45;2.92;;;;;;;19.47;53.63;98005.44;10374122;28;20032;-22
2021/12/15 11:07:29;;;;;;;5.97;3.00;;;;;;;19.48;53.68;97997.84;10370327;28;20464;-22
2021/12/15 11:12:45;;;;;;;8.10;3.10;;;;;;;19.46;53.82;97993.56;10368203;28;20125;-22
2021/12/15 11:18:05;;;;;;;4.23;2.07;;;;;;;19.34;53.97;97968.84;10370466;28;20162;-22
2021/12/15 11:23:27;;;;;;;4.72;2.70;;;;;;;19.43;53.97;97991.84;10367565;28;20040;-22
2021/12/15 11:28:37;;;;;;;7.38;2.60;;;;;;;19.40;53.38;97973.16;10358670;28;20049;-22
2021/12/15 11:33:50;;;;;;;7.10;3.13;;;;;;;19.41;53.99;97970.66;10368602;28;20066;-22
2021/12/15 11:38:59;;;;;;;5.82;2.75;;;;;;;19.53;53.67;97975.94;10369364;28;20100;-22
2021/12/15 11:44:09;;;;;;;9.45;2.67;;;;;;;19.55;53.82;97974.28;10368399;28;20049;-22
2021/12/15 11:49:13;;;;;;;6.38;2.78;;;;;;;19.52;53.78;97979.28;10367807;28;20728;-22
2021/12/15 11:54:30;;;;;;;7.32;3.17;;;;;;;19.52;53.80;97978.44;10363064;28;20045;-22
2021/12/15 11:59:32;;;;;;;4.80;2.40;;;;;;;19.50;54.02;97969.94;10361071;28;20033;-22
2021/12/15 12:04:47;;;;;;;6.38;3.00;;;;;;;19.48;53.88;97980.09;10368308;28;20049;-22
2021/12/15 12:09:58;;;;;;;8.23;2.80;;;;;;;19.48;53.96;97984.28;10368212;28;20103;-22
2021/12/15 12:14:58;;;;;;;5.78;2.78;;;;;;;19.49;53.93;97980.94;10367232;28;20034;-22
2021/12/15 12:20:02;;;;;;;3.65;2.20;;;;;;;19.49;54.20;97976.72;10366865;28;20033;-22
2021/12/15 12:25:10;;;;;;;16.13;5.78;;;;;;;19.17;52.07;97975.28;10368103;28;20036;-22
2021/12/15 12:30:19;;;;;;;9.35;4.03;;;;;;;19.42;52.73;97981.69;10362554;28;20120;-22
2021/12/15 12:35:27;;;;;;;15.40;5.82;;;;;;;19.38;53.23;97969.75;10364231;28;20030;-23
2021/12/15 12:40:35;;;;;;;20.25;7.70;;;;;;;19.43;53.32;97970.69;10364076;28;20497;-22
2021/12/15 12:45:38;;;;;;;18.60;7.95;;;;;;;19.43;53.59;97960.53;10365849;28;20029;-23
2021/12/15 12:57:58;;;;;;;22.55;8.65;;;;;;;19.44;54.00;97960.53;10342898;28;20061;-22
2021/12/15 13:01:32;;;;;;;26.40;9.07;;;;;;;19.40;54.04;97957.91;10365994;28;20034;-22
2021/12/15 13:06:41;;;;;;;26.67;10.13;;;;;;;19.40;54.49;97958.78;10360827;28;20084;-22
2021/12/15 13:11:46;;;;;;;31.45;12.38;;;;;;;19.37;55.07;97952.78;10363185;28;20049;-25
2021/12/15 13:16:54;;;;;;;33.00;12.15;;;;;;;19.37;55.25;97958.75;10366907;28;20033;-22
2021/12/15 13:22:21;;;;;;;24.98;11.88;;;;;;;19.33;55.58;97956.13;10364711;28;20053;-22
2021/12/15 13:32:38;;;;;;;17.10;6.20;;;;;;;18.99;49.52;97951.28;10364930;28;20502;-22
2021/12/15 13:37:54;;;;;;;11.07;5.63;;;;;;;18.39;47.28;97952.66;10364781;28;20517;-22
2021/12/15 13:43:02;;;;;;;11.82;5.60;;;;;;;18.10;48.33;97956.25;10364507;28;20032;-22
2021/12/15 13:48:03;;;;;;;16.38;4.93;;;;;;;18.14;49.84;97960.53;10369298;28;20572;-22
2021/12/15 13:53:03;;;;;;;17.27;6.60;;;;;;;18.76;51.74;97965.22;10357185;28;20084;-22
2021/12/15 13:58:10;;;;;;;19.15;8.10;;;;;;;18.94;52.51;97975.72;10363768;28;20049;-22
2021/12/15 14:03:10;;;;;;;19.88;7.55;;;;;;;19.05;52.89;97974.22;10367986;28;20553;-22
2021/12/15 14:08:14;;;;;;;14.15;7.35;;;;;;;19.13;52.97;97976.06;10363415;28;20037;-22
2021/12/15 14:13:15;;;;;;;16.85;6.63;;;;;;;19.20;52.91;97971.97;10359385;28;20045;-22
2021/12/15 14:18:20;;;;;;;15.13;6.85;;;;;;;19.20;53.09;97971.97;10367067;28;20052;-22
2021/12/15 14:23:28;;;;;;;16.55;6.78;;;;;;;19.19;53.50;97986.34;10361923;28;20478;-22
2021/12/15 14:28:40;;;;;;;14.48;6.70;;;;;;;19.20;53.55;97985.53;10359215;28;20305;-22
2021/12/15 14:33:47;;;;;;;11.57;6.05;;;;;;;19.23;53.54;97989.78;10360600;28;20494;-22
2021/12/15 14:38:53;;;;;;;16.38;7.28;;;;;;;19.22;53.82;97988.09;10364027;28;20108;-22
2021/12/15 14:44:03;;;;;;;14.65;6.32;;;;;;;19.26;53.63;98000.03;10356215;28;20033;-23
2021/12/15 14:49:35;;;;;;;13.30;5.75;;;;;;;19.25;53.79;97998.31;10366889;28;20058;-22
2021/12/15 14:54:37;;;;;;;14.40;6.03;;;;;;;19.24;53.79;98011.84;10329539;28;20046;-22
2021/12/15 14:59:53;;;;;;;16.05;6.13;;;;;;;19.28;53.84;98016.13;10363698;28;20096;-23
2021/12/15 15:05:01;;;;;;;15.38;6.78;;;;;;;19.24;53.70;98022.00;10376016;28;20090;-22
2021/12/15 15:10:07;;;;;;;13.40;5.40;;;;;;;19.29;53.58;98020.38;10383405;28;20526;-22
2021/12/15 15:15:10;;;;;;;12.07;5.90;;;;;;;19.29;53.67;98025.44;10384898;28;20117;-22
2021/12/15 15:20:16;;;;;;;14.25;6.20;;;;;;;19.28;53.70;98024.63;10385691;28;20042;-23
2021/12/15 15:25:21;;;;;;;9.75;4.75;;;;;;;19.28;53.82;98033.91;10388084;28;20041;-22
2021/12/15 15:30:25;;;;;;;9.70;5.22;;;;;;;19.30;53.84;98032.25;10369491;28;20041;-22
2021/12/15 15:35:31;;;;;;;9.40;5.18;;;;;;;19.30;53.85;98032.25;10364454;28;20041;-22
2021/12/15 15:40:35;;;;;;;10.05;5.15;;;;;;;19.27;53.90;98032.19;10369240;28;20113;-22
2021/12/15 15:45:43;;;;;;;12.23;5.35;;;;;;;19.28;54.38;98031.38;10367745;28;20099;-22
2021/12/15 15:50:49;;;;;;;12.10;5.72;;;;;;;19.28;53.86;98018.66;10368940;28;20648;-22
2021/12/15 15:55:54;;;;;;;9.10;5.03;;;;;;;19.35;53.96;98040.81;10363433;28;20037;-22
2021/12/15 16:00:59;;;;;;;11.87;4.67;;;;;;;19.31;54.06;98044.09;10369979;28;20092;-22
2021/12/15 16:06:03;;;;;;;10.15;4.68;;;;;;;19.31;53.96;98037.34;10365090;28;20045;-22
2021/12/15 16:11:05;;;;;;;11.35;4.38;;;;;;;19.29;54.17;98035.63;10368069;28;20053;-22
2021/12/15 16:16:10;;;;;;;8.55;4.28;;;;;;;19.28;53.84;98039.84;10366216;28;20030;-22
2021/12/15 16:22:51;;;;;;;12.88;4.55;;;;;;;19.21;54.11;98029.53;10366811;28;20409;-22
2021/12/15 16:26:50;;;;;;;9.50;4.18;;;;;;;19.28;54.06;98034.78;10363512;28;20041;-27
2021/12/15 16:31:58;;;;;;;6.82;4.03;;;;;;;19.27;54.18;98033.03;10358786;28;20145;-22
2021/12/15 16:36:59;;;;;;;8.57;4.20;;;;;;;19.28;54.15;98036.44;10361868;28;20068;-22
2021/12/15 16:41:59;;;;;;;8.10;4.95;;;;;;;19.32;53.92;98033.13;10359418;28;20048;-22
2021/12/15 16:47:05;;;;;;;8.52;4.07;;;;;;;19.38;53.82;98031.56;10365797;28;20053;-23
2021/12/15 16:52:25;;;;;;;6.35;4.18;;;;;;;19.41;53.82;98030.75;10353769;28;20034;-22
2021/12/15 16:57:29;;;;;;;9.52;3.95;;;;;;;19.36;53.93;98038.31;10359405;28;20041;-22
2021/12/15 17:02:36;;;;;;;7.18;3.85;;;;;;;19.38;53.70;98033.22;10357728;28;20073;-23
2021/12/15 17:07:42;;;;;;;10.25;3.90;;;;;;;19.33;53.97;98039.94;10358730;28;20038;-23
2021/12/15 17:12:57;;;;;;;8.75;3.83;;;;;;;19.34;54.00;98018.78;10359788;28;20045;-22
2021/12/15 17:17:58;;;;;;;8.63;3.90;;;;;;;19.38;53.97;98035.78;10365627;28;20034;-22
2021/12/15 17:23:14;;;;;;;7.60;3.85;;;;;;;19.33;54.22;98047.56;10365556;28;20030;-23
2021/12/15 17:28:25;;;;;;;7.97;3.60;;;;;;;19.32;54.40;98045.81;10361205;28;20505;-22
2021/12/15 17:33:30;;;;;;;11.40;4.50;;;;;;;19.25;54.85;98044.84;10363306;28;20054;-22
2021/12/15 17:38:31;;;;;;;9.82;3.92;;;;;;;19.34;55.36;98045.03;10359077;28;20034;-22
2021/12/15 17:43:36;;;;;;;10.52;4.38;;;;;;;19.31;55.58;98060.22;10364496;28;20550;-22
2021/12/15 17:48:36;;;;;;;7.50;3.53;;;;;;;19.32;56.04;98056.84;10358752;28;20718;-22
2021/12/15 17:53:37;;;;;;;13.15;5.18;;;;;;;19.33;56.11;98068.72;10357880;28;20048;-22
2021/12/15 17:58:37;;;;;;;16.35;5.30;;;;;;;19.36;56.75;98078.06;10357603;28;20049;-22
2021/12/15 18:03:41;;;;;;;13.87;5.33;;;;;;;19.31;56.87;98089.81;10348455;28;20041;-22
2021/12/15 18:08:43;;;;;;;11.45;5.70;;;;;;;19.32;57.21;98091.53;10362387;28;20038;-22
2021/12/15 18:13:47;;;;;;;6.82;4.75;;;;;;;19.34;56.86;98095.81;10359183;28;20061;-22
2021/12/15 18:18:54;;;;;;;16.85;5.72;;;;;;;19.35;56.78;98096.69;10353627;28;20038;-22
2021/12/15 18:23:54;;;;;;;12.90;4.78;;;;;;;19.37;57.26;98105.19;10363335;28;20065;-23
2021/12/15 18:28:56;;;;;;;11.33;5.17;;;;;;;19.37;57.31;98105.19;10358026;28;20117;-22
2021/12/15 18:33:58;;;;;;;11.65;4.50;;;;;;;19.34;57.35;98110.22;10362639;28;20029;-23
2021/12/15 18:38:59;;;;;;;11.10;4.75;;;;;;;19.34;57.09;98105.97;10366672;28;20107;-23
2021/12/15 18:44:04;;;;;;;12.80;5.13;;;;;;;19.31;57.23;98105.06;10367384;28;20045;-22
2021/12/15 18:49:10;;;;;;;9.73;4.13;;;;;;;19.32;57.05;98122.00;10372913;28;20065;-23
2021/12/15 18:54:11;;;;;;;9.45;5.28;;;;;;;19.21;57.03;98103.19;10363690;28;20221;-22
2021/12/15 18:59:11;;;;;;;12.25;4.55;;;;;;;19.33;57.17;98123.75;10366249;28;20022;-22
2021/12/15 19:04:13;;;;;;;9.33;4.10;;;;;;;19.23;57.05;98111.66;10365239;28;20033;-22
2021/12/15 19:09:17;;;;;;;10.52;4.40;;;;;;;19.31;56.75;98116.09;10367815;28;20572;-22
2021/12/15 19:14:18;;;;;;;11.23;4.05;;;;;;;19.30;56.68;98118.59;10364885;28;20026;-22
2021/12/15 19:19:22;;;;;;;9.02;4.10;;;;;;;19.29;56.52;98135.53;10353706;28;20037;-22
2021/12/15 19:24:24;;;;;;;8.05;3.72;;;;;;;19.26;56.45;98137.97;10363056;28;20076;-23
2021/12/15 19:29:25;;;;;;;8.60;4.10;;;;;;;19.26;56.57;98132.06;10365838;28;20530;-22
2021/12/15 19:34:25;;;;;;;7.03;3.83;;;;;;;19.23;56.60;98137.06;10368744;28;20029;-22
2021/12/15 19:39:25;;;;;;;7.45;4.05;;;;;;;19.28;56.17;98143.97;10361502;28;20030;-22
2021/12/15 19:44:26;;;;;;;5.97;3.33;;;;;;;19.09;56.20;98123.22;10367982;28;20026;-23
2021/12/15 19:49:28;;;;;;;7.88;3.90;;;;;;;19.21;56.45;98153.97;10368363;28;20292;-22
2021/12/15 19:54:29;;;;;;;10.43;4.72;;;;;;;19.22;55.25;98156.53;10360874;28;20041;-22
2021/12/15 19:59:30;;;;;;;7.55;3.80;;;;;;;19.20;56.06;98149.72;10368865;28;20437;-22
2021/12/15 20:04:33;;;;;;;10.50;3.47;;;;;;;19.25;56.20;98165.91;10367149;28;20022;-22
2021/12/15 20:09:35;;;;;;;8.65;3.30;;;;;;;19.24;56.27;98169.28;10367771;28;20033;-23
2021/12/15 20:14:35;;;;;;;7.25;3.33;;;;;;;19.26;56.02;98178.63;10362457;28;20272;-22
2021/12/15 20:19:37;;;;;;;6.57;3.60;;;;;;;19.26;56.06;98185.38;10367223;28;20117;-22
2021/12/15 20:24:43;;;;;;;5.28;3.13;;;;;;;19.21;56.24;98184.44;10367483;28;20034;-22
2021/12/15 20:29:44;;;;;;;7.97;2.92;;;;;;;19.23;56.19;98200.53;10360594;28;20360;-22
2021/12/15 20:34:47;;;;;;;6.43;3.42;;;;;;;19.23;56.28;98200.53;10361768;28;20509;-23
2021/12/15 20:39:48;;;;;;;3.67;2.60;;;;;;;19.22;56.14;98191.22;10367367;28;20056;-22
2021/12/15 20:44:49;;;;;;;8.15;3.35;;;;;;;19.24;56.13;98202.28;10362407;28;20406;-22
2021/12/15 20:49:50;;;;;;;7.90;4.10;;;;;;;19.25;56.00;98204.84;10361387;28;20034;-22
2021/12/15 20:54:51;;;;;;;8.48;3.33;;;;;;;19.23;55.96;98203.09;10370600;28;20041;-22
2021/12/15 20:59:52;;;;;;;6.60;3.08;;;;;;;19.21;56.12;98203.06;10366827;28;20041;-22
2021/12/15 21:04:53;;;;;;;5.45;2.80;;;;;;;19.21;56.28;98202.19;10364481;28;20026;-22
2021/12/15 21:09:56;;;;;;;6.57;3.22;;;;;;;19.25;56.09;98196.38;10366258;28;20537;-22
2021/12/15 21:14:58;;;;;;;3.72;2.40;;;;;;;19.23;56.07;98203.09;10357812;28;20030;-22
2021/12/15 21:19:59;;;;;;;5.95;2.90;;;;;;;19.23;56.02;98198.00;10363043;28;20125;-23
2021/12/15 21:25:01;;;;;;;5.10;2.42;;;;;;;19.23;56.03;98211.56;10366736;28;20043;-22
2021/12/15 21:30:17;;;;;;;4.50;2.90;;;;;;;19.29;55.93;98208.28;10363606;28;20465;-22
2021/12/15 21:35:21;;;;;;;5.82;2.78;;;;;;;19.24;56.10;98214.97;10364166;28;20033;-22
2021/12/15 21:40:25;;;;;;;4.07;2.35;;;;;;;19.20;56.19;98228.41;10360039;28;20080;-22
2021/12/15 21:45:28;;;;;;;2.80;1.83;;;;;;;19.18;56.40;98230.88;10366858;28;20052;-23
2021/12/15 21:50:29;;;;;;;3.97;2.40;;;;;;;19.17;56.51;98238.50;10361558;28;20048;-22
2021/12/15 21:55:33;;;;;;;5.15;2.60;;;;;;;19.21;56.41;98251.31;10357481;28;20434;-22
2021/12/15 22:00:34;;;;;;;6.70;3.03;;;;;;;19.35;56.01;98244.00;10353043;28;20105;-22
2021/12/15 22:05:37;;;;;;;6.75;2.40;;;;;;;19.48;55.65;98261.19;10356391;28;20040;-22
2021/12/15 22:10:37;;;;;;;4.28;2.13;;;;;;;19.53;55.46;98264.69;10366721;28;20038;-22
2021/12/15 22:15:43;;;;;;;4.18;2.22;;;;;;;19.61;55.11;98275.84;10365595;28;20061;-22
2021/12/15 22:20:45;;;;;;;3.80;2.30;;;;;;;19.65;55.22;98275.94;10366545;28;20034;-22
2021/12/15 22:25:46;;;;;;;6.43;2.50;;;;;;;19.66;55.04;98274.28;10371912;28;20083;-22
2021/12/15 22:30:48;;;;;;;5.53;2.05;;;;;;;19.67;55.06;98283.59;10368406;28;20046;-22
2021/12/15 22:35:48;;;;;;;5.47;1.80;;;;;;;19.66;54.96;98281.91;10362438;28;20037;-22
2021/12/15 22:40:51;;;;;;;6.43;2.60;;;;;;;19.62;55.09;98285.19;10367283;28;20038;-22
2021/12/15 22:45:52;;;;;;;4.25;2.20;;;;;;;19.61;55.10;98280.94;10374615;28;20080;-22
2021/12/15 22:50:54;;;;;;;5.30;2.28;;;;;;;19.55;55.40;98278.25;10365648;28;20037;-22
2021/12/15 22:55:55;;;;;;;5.72;2.67;;;;;;;19.54;55.67;98294.34;10363601;28;20065;-22
2021/12/15 23:01:05;;;;;;;6.85;2.47;;;;;;;19.51;55.80;98287.50;10369513;28;20032;-22
2021/12/15 23:06:06;;;;;;;5.05;2.35;;;;;;;19.49;55.92;98293.41;10367842;28;20065;-22
2021/12/15 23:11:20;;;;;;;6.35;2.35;;;;;;;19.37;55.88;98267.72;10366464;28;20053;-22
2021/12/15 23:16:22;;;;;;;4.95;2.25;;;;;;;19.44;56.09;98269.56;10363229;28;20030;-22
2021/12/15 23:21:24;;;;;;;6.95;2.65;;;;;;;19.43;56.18;98262.78;10366453;28;20590;-22
2021/12/15 23:26:25;;;;;;;7.70;2.53;;;;;;;19.44;55.77;98269.56;10369948;28;20690;-22
2021/12/15 23:31:29;;;;;;;6.72;2.85;;;;;;;19.42;55.72;98267.00;10366389;28;20033;-22
2021/12/15 23:36:30;;;;;;;5.80;2.10;;;;;;;19.36;55.82;98248.25;10360643;28;20402;-22
2021/12/15 23:42:10;;;;;;;3.08;1.85;;;;;;;19.38;55.78;98244.03;10369759;28;20029;-22
